createdAt,value
2022-12-15T00:02:21.464Z,22.38
2022-12-15T00:05:07.465Z,25.08
2022-12-15T00:07:53.274Z,20.75
2022-12-15T00:10:38.713Z,27.33
2022-12-15T00:13:31.798Z,22.10
2022-12-15T00:16:17.571Z,22.00
2022-12-15T00:19:03.010Z,24.55
2022-12-15T00:21:48.362Z,23.00
2022-12-15T00:24:34.121Z,24.88
2022-12-15T00:27:19.643Z,23.75
2022-12-15T00:30:05.031Z,21.60
2022-12-15T00:32:50.625Z,19.15
2022-12-15T00:35:35.895Z,21.63
2022-12-15T00:38:28.805Z,24.25
2022-12-15T00:40:59.559Z,24.55
2022-12-15T00:43:28.264Z,22.65
2022-12-15T00:46:14.181Z,25.33
2022-12-15T00:48:41.747Z,24.02
2022-12-15T00:51:08.481Z,28.98
2022-12-15T00:53:53.761Z,19.23
2022-12-15T00:56:39.199Z,21.00
2022-12-15T00:59:24.685Z,22.05
2022-12-15T01:02:10.110Z,21.98
2022-12-15T01:04:55.466Z,20.85
2022-12-15T01:07:41.207Z,24.10
2022-12-15T01:10:26.730Z,20.17
2022-12-15T01:13:12.401Z,23.30
2022-12-15T01:15:57.843Z,22.67
2022-12-15T01:18:43.715Z,21.27
2022-12-15T01:21:16.324Z,22.15
2022-12-15T01:23:42.984Z,20.65
2022-12-15T01:26:09.708Z,21.00
2022-12-15T01:28:36.687Z,19.13
2022-12-15T01:31:10.059Z,23.02
2022-12-15T01:33:36.751Z,21.80
2022-12-15T01:36:03.534Z,22.55
2022-12-15T01:38:30.204Z,20.25
2022-12-15T01:41:02.629Z,22.55
2022-12-15T01:43:32.123Z,22.30
2022-12-15T01:46:09.297Z,23.45
2022-12-15T01:48:40.234Z,19.85
2022-12-15T01:51:28.814Z,22.42
2022-12-15T01:54:18.396Z,24.33
2022-12-15T01:56:53.739Z,21.15
2022-12-15T01:59:27.029Z,21.27
2022-12-15T02:01:54.980Z,20.05
2022-12-15T02:04:23.471Z,21.13
2022-12-15T02:06:50.623Z,21.10
2022-12-15T02:09:18.394Z,22.42
2022-12-15T02:12:00.919Z,26.15
2022-12-15T02:14:44.603Z,18.58
2022-12-15T02:17:40.305Z,21.85
2022-12-15T02:20:23.881Z,18.83
2022-12-15T02:23:26.506Z,22.92
2022-12-15T02:26:37.980Z,24.42
2022-12-15T02:29:36.070Z,19.80
2022-12-15T02:32:20.120Z,18.52
2022-12-15T02:34:55.700Z,18.92
2022-12-15T02:37:40.907Z,19.58
2022-12-15T02:40:10.270Z,19.17
2022-12-15T02:42:43.741Z,23.77
2022-12-15T02:45:13.966Z,18.85
2022-12-15T02:48:11.861Z,20.42
2022-12-15T02:51:21.449Z,18.80
2022-12-15T02:54:04.227Z,18.45
2022-12-15T02:56:37.815Z,17.02
2022-12-15T02:59:13.464Z,17.55
2022-12-15T03:01:46.671Z,18.23
2022-12-15T03:04:13.891Z,18.55
2022-12-15T03:06:40.878Z,18.00
2022-12-15T03:09:07.556Z,19.25
2022-12-15T03:11:36.482Z,19.13
2022-12-15T03:14:03.460Z,17.75
2022-12-15T03:16:30.143Z,17.17
2022-12-15T03:18:57.932Z,17.95
2022-12-15T03:21:24.601Z,14.88
2022-12-15T03:23:51.271Z,19.25
2022-12-15T03:26:18.142Z,21.67
2022-12-15T03:28:45.204Z,18.50
2022-12-15T03:31:11.899Z,18.02
2022-12-15T03:33:38.795Z,19.25
2022-12-15T03:36:05.701Z,19.10
2022-12-15T03:38:32.377Z,20.08
2022-12-15T03:40:59.097Z,20.10
2022-12-15T03:43:25.745Z,18.27
2022-12-15T03:45:52.457Z,19.42
2022-12-15T03:48:19.204Z,18.60
2022-12-15T03:50:47.900Z,19.60
2022-12-15T03:53:14.514Z,19.15
2022-12-15T03:55:41.162Z,18.17
2022-12-15T03:58:07.900Z,18.25
2022-12-15T04:00:34.583Z,19.38
2022-12-15T04:03:01.539Z,16.88
2022-12-15T04:05:31.621Z,20.98
2022-12-15T04:08:41.983Z,24.05
2022-12-15T04:11:10.684Z,18.05
2022-12-15T04:13:37.427Z,18.52
2022-12-15T04:16:04.556Z,18.95
2022-12-15T04:18:31.338Z,19.80
2022-12-15T04:20:58.054Z,20.60
2022-12-15T04:23:24.751Z,20.75
2022-12-15T04:26:10.430Z,20.38
2022-12-15T04:28:55.884Z,18.60
2022-12-15T04:31:46.151Z,20.55
2022-12-15T04:34:35.203Z,19.08
2022-12-15T04:37:21.177Z,22.52
2022-12-15T04:40:09.232Z,20.48
2022-12-15T04:42:58.868Z,18.90
2022-12-15T04:45:44.462Z,20.30
2022-12-15T04:48:30.453Z,18.30
2022-12-15T04:51:15.885Z,18.42
2022-12-15T04:54:04.936Z,18.55
2022-12-15T04:56:51.141Z,19.38
2022-12-15T04:59:38.729Z,23.85
2022-12-15T05:02:24.051Z,17.50
2022-12-15T05:05:09.484Z,17.90
2022-12-15T05:07:55.070Z,19.85
2022-12-15T05:10:40.625Z,18.42
2022-12-15T05:13:27.336Z,17.55
2022-12-15T05:16:13.139Z,25.38
2022-12-15T05:18:58.382Z,18.90
2022-12-15T05:21:43.942Z,16.85
2022-12-15T05:24:30.231Z,20.10
2022-12-15T05:27:15.688Z,17.50
2022-12-15T05:30:01.342Z,20.20
2022-12-15T05:32:28.037Z,19.77
2022-12-15T05:34:54.668Z,21.15
2022-12-15T05:37:21.373Z,18.85
2022-12-15T05:39:48.052Z,20.40
2022-12-15T05:42:14.689Z,24.08
2022-12-15T05:44:41.439Z,15.80
2022-12-15T05:47:14.092Z,17.23
2022-12-15T05:49:52.204Z,16.70
2022-12-15T05:52:19.873Z,18.45
2022-12-15T05:54:46.535Z,20.73
2022-12-15T05:57:13.263Z,18.20
2022-12-15T05:59:40.005Z,21.00
2022-12-15T06:02:06.808Z,18.00
2022-12-15T06:04:33.629Z,19.33
2022-12-15T06:07:00.322Z,18.10
2022-12-15T06:09:27.126Z,19.60
2022-12-15T06:11:53.873Z,17.52
2022-12-15T06:14:20.526Z,16.77
2022-12-15T06:16:50.768Z,19.38
2022-12-15T06:19:19.167Z,19.63
2022-12-15T06:21:45.830Z,18.80
2022-12-15T06:24:12.493Z,19.08
2022-12-15T06:26:40.278Z,20.33
2022-12-15T06:29:09.225Z,22.58
2022-12-15T06:31:40.674Z,19.35
2022-12-15T06:34:11.710Z,24.70
2022-12-15T06:36:39.314Z,19.63
2022-12-15T06:39:09.670Z,21.00
2022-12-15T06:41:36.715Z,18.17
2022-12-15T06:44:04.296Z,20.10
2022-12-15T06:46:33.012Z,19.23
2022-12-15T06:48:59.745Z,19.73
2022-12-15T06:51:29.999Z,18.52
2022-12-15T06:53:56.867Z,19.70
2022-12-15T06:56:32.974Z,18.45
2022-12-15T06:59:01.776Z,18.90
2022-12-15T07:01:29.128Z,21.75
2022-12-15T07:03:57.020Z,17.73
2022-12-15T07:06:24.002Z,22.15
2022-12-15T07:08:53.780Z,21.30
2022-12-15T07:11:21.825Z,21.45
2022-12-15T07:13:52.785Z,19.52
2022-12-15T07:16:22.294Z,19.83
2022-12-15T07:18:49.237Z,20.33
2022-12-15T07:21:30.735Z,18.70
2022-12-15T07:24:17.617Z,38.40
2022-12-15T07:27:19.291Z,19.73
2022-12-15T07:29:51.092Z,20.90
2022-12-15T07:32:18.365Z,20.10
2022-12-15T07:34:55.361Z,18.08
2022-12-15T07:37:22.059Z,20.35
2022-12-15T07:39:51.500Z,19.52
2022-12-15T07:42:19.492Z,19.05
2022-12-15T07:44:46.540Z,20.42
2022-12-15T07:49:43.346Z,21.40
2022-12-15T07:52:09.996Z,18.58
2022-12-15T07:54:38.758Z,19.13
2022-12-15T07:57:07.464Z,19.90
2022-12-15T07:59:34.742Z,17.17
2022-12-15T08:02:04.482Z,23.75
2022-12-15T08:04:32.375Z,20.95
2022-12-15T08:07:11.800Z,21.38
2022-12-15T08:09:38.428Z,19.15
2022-12-15T08:12:05.239Z,22.98
2022-12-15T08:14:33.328Z,19.90
2022-12-15T08:17:00.195Z,23.05
2022-12-15T08:19:27.116Z,23.02
2022-12-15T08:21:53.818Z,20.20
2022-12-15T08:24:21.479Z,21.42
2022-12-15T08:26:50.739Z,20.85
2022-12-15T08:29:49.579Z,21.48
2022-12-15T08:32:11.356Z,19.73
2022-12-15T08:34:38.930Z,17.77
2022-12-15T08:37:05.646Z,23.17
2022-12-15T08:39:32.395Z,18.58
2022-12-15T08:42:00.157Z,19.67
2022-12-15T08:44:26.846Z,19.92
2022-12-15T08:46:53.498Z,22.33
2022-12-15T08:49:22.489Z,21.58
2022-12-15T08:51:50.457Z,21.90
2022-12-15T08:54:19.140Z,21.98
2022-12-15T08:56:45.770Z,20.45
2022-12-15T08:59:12.623Z,20.50
2022-12-15T09:01:45.400Z,18.55
2022-12-15T09:04:12.268Z,18.45
2022-12-15T09:06:40.315Z,23.77
2022-12-15T09:09:10.638Z,21.10
2022-12-15T09:11:37.361Z,22.42
2022-12-15T09:14:04.475Z,23.25
2022-12-15T09:16:31.376Z,21.63
2022-12-15T09:18:59.748Z,22.30
2022-12-15T09:21:29.121Z,21.45
2022-12-15T09:24:00.537Z,23.67
2022-12-15T09:26:30.210Z,20.45
2022-12-15T09:29:14.956Z,27.63
2022-12-15T09:31:44.631Z,20.70
2022-12-15T09:34:14.946Z,23.80
2022-12-15T09:36:42.471Z,26.58
2022-12-15T09:39:11.925Z,29.30
2022-12-15T09:41:40.407Z,23.73
2022-12-15T09:44:17.842Z,25.98
2022-12-15T09:47:12.648Z,23.42
2022-12-15T09:49:58.084Z,21.65
2022-12-15T09:52:31.198Z,22.33
2022-12-15T09:54:59.239Z,23.15
2022-12-15T09:57:46.719Z,26.38
2022-12-15T10:00:22.118Z,26.83
2022-12-15T10:03:11.046Z,27.35
2022-12-15T10:06:21.506Z,25.90
2022-12-15T10:11:50.724Z,28.50
2022-12-15T10:14:29.596Z,26.13
2022-12-15T10:17:21.944Z,26.48
2022-12-15T10:20:13.224Z,25.77
2022-12-15T10:22:40.408Z,26.25
2022-12-15T10:25:27.598Z,28.60
2022-12-15T10:28:03.372Z,30.77
2022-12-15T10:30:30.738Z,24.77
2022-12-15T10:33:14.935Z,26.90
2022-12-15T10:35:43.983Z,33.88
2022-12-15T10:38:38.511Z,32.83
2022-12-15T10:41:20.724Z,27.98
2022-12-15T10:43:50.440Z,29.25
2022-12-15T10:46:20.142Z,25.33
2022-12-15T10:49:00.085Z,53.58
2022-12-15T10:51:32.579Z,29.35
2022-12-15T10:54:03.315Z,25.85
2022-12-15T10:56:33.945Z,25.85
2022-12-15T10:59:06.491Z,28.30
2022-12-15T11:01:34.970Z,30.40
2022-12-15T11:04:01.808Z,28.23
2022-12-15T11:06:32.667Z,27.67
2022-12-15T11:09:16.559Z,26.63
2022-12-15T11:12:06.289Z,30.75
2022-12-15T11:14:46.564Z,30.77
2022-12-15T11:17:18.702Z,28.17
2022-12-15T11:20:17.918Z,32.33
2022-12-15T11:23:05.035Z,27.25
2022-12-15T11:25:37.625Z,33.90
2022-12-15T11:28:16.876Z,26.67
2022-12-15T11:30:49.331Z,31.70
2022-12-15T11:33:17.030Z,25.15
2022-12-15T11:35:53.940Z,28.67
2022-12-15T11:38:47.955Z,28.13
2022-12-15T11:41:41.753Z,28.52
2022-12-15T11:44:08.405Z,28.70
2022-12-15T11:46:45.658Z,28.98
2022-12-15T11:49:40.962Z,30.52
2022-12-15T11:52:43.113Z,31.08
2022-12-15T11:58:39.198Z,30.52
2022-12-15T12:01:21.971Z,29.52
2022-12-15T12:04:23.838Z,28.88
2022-12-15T12:07:04.195Z,28.95
2022-12-15T12:09:53.581Z,28.75
2022-12-15T12:12:33.883Z,31.67
2022-12-15T12:15:13.184Z,33.50
2022-12-15T12:18:21.816Z,32.47
2022-12-15T12:21:09.276Z,30.10
2022-12-15T12:23:39.694Z,28.27
2022-12-15T12:26:21.253Z,24.65
2022-12-15T12:29:21.086Z,24.17
2022-12-15T12:32:04.154Z,28.63
2022-12-15T12:34:40.158Z,31.15
2022-12-15T12:37:21.235Z,28.77
2022-12-15T12:39:49.478Z,27.38
2022-12-15T12:42:23.042Z,26.52
2022-12-15T12:44:49.903Z,30.92
2022-12-15T12:47:30.730Z,31.65
2022-12-15T12:50:14.507Z,29.30
2022-12-15T12:52:49.932Z,27.35
2022-12-15T12:55:35.797Z,28.35
2022-12-15T12:58:02.878Z,27.63
2022-12-15T13:00:32.289Z,26.45
2022-12-15T13:03:16.469Z,28.07
2022-12-15T13:05:45.677Z,31.95
2022-12-15T13:08:15.449Z,40.55
2022-12-15T13:10:44.461Z,30.08
2022-12-15T13:13:32.551Z,29.55
2022-12-15T13:16:24.270Z,30.88
2022-12-15T13:19:08.541Z,30.67
2022-12-15T13:21:44.365Z,31.88
2022-12-15T13:24:34.539Z,32.20
2022-12-15T13:27:10.090Z,28.80
2022-12-15T13:29:54.069Z,31.77
2022-12-15T13:32:39.956Z,32.53
2022-12-15T13:35:12.748Z,27.85
2022-12-15T13:37:56.680Z,29.95
2022-12-15T13:40:23.731Z,28.30
2022-12-15T13:42:58.849Z,28.48
2022-12-15T13:45:35.948Z,29.88
2022-12-15T13:48:37.795Z,32.20
2022-12-15T13:51:24.034Z,29.80
2022-12-15T13:53:58.945Z,28.45
2022-12-15T13:56:50.732Z,32.00
2022-12-15T13:59:38.505Z,38.75
2022-12-15T14:02:32.376Z,36.78
2022-12-15T14:05:14.800Z,31.33
2022-12-15T14:08:01.496Z,29.85
2022-12-15T14:10:36.924Z,28.60
2022-12-15T14:13:29.896Z,25.42
2022-12-15T14:16:04.683Z,30.83
2022-12-15T14:18:37.352Z,32.42
2022-12-15T14:21:19.617Z,33.00
2022-12-15T14:26:33.473Z,52.50
2022-12-15T14:29:07.336Z,46.53
2022-12-15T14:31:36.978Z,38.28
2022-12-15T14:34:10.807Z,38.47
2022-12-15T14:36:39.654Z,30.85
2022-12-15T14:39:15.446Z,29.50
2022-12-15T14:41:51.908Z,31.35
2022-12-15T14:44:49.969Z,35.28
2022-12-15T14:47:31.426Z,33.22
2022-12-15T14:50:02.289Z,31.30
2022-12-15T14:52:39.685Z,31.77
2022-12-15T14:55:32.826Z,31.92
2022-12-15T14:58:00.018Z,40.08
2022-12-15T15:00:34.350Z,30.75
2022-12-15T15:03:06.970Z,32.92
2022-12-15T15:06:06.290Z,32.83
2022-12-15T15:08:34.774Z,29.95
2022-12-15T15:11:24.078Z,30.55
2022-12-15T15:13:56.516Z,36.33
2022-12-15T15:17:09.756Z,30.77
2022-12-15T15:20:34.925Z,51.60
2022-12-15T15:23:21.999Z,40.60
2022-12-15T15:25:52.019Z,35.80
2022-12-15T15:28:39.993Z,39.17
2022-12-15T15:31:25.273Z,41.45
2022-12-15T15:33:52.766Z,43.15
2022-12-15T15:36:19.750Z,44.85
2022-12-15T15:38:52.153Z,36.72
2022-12-15T15:41:37.323Z,40.22
2022-12-15T15:44:12.221Z,38.63
2022-12-15T15:46:51.066Z,35.30
2022-12-15T15:49:21.894Z,39.80
2022-12-15T15:51:49.604Z,41.33
2022-12-15T15:54:19.096Z,41.72
2022-12-15T15:57:15.514Z,34.42
2022-12-15T15:59:44.153Z,41.83
2022-12-15T16:02:15.578Z,31.85
2022-12-15T16:04:47.944Z,31.02
2022-12-15T16:07:26.774Z,32.60
2022-12-15T16:09:59.560Z,44.40
2022-12-15T16:12:40.081Z,36.08
2022-12-15T16:21:44.275Z,36.60
2022-12-15T16:24:29.885Z,34.33
2022-12-15T16:27:47.509Z,47.58
2022-12-15T16:30:26.915Z,37.38
2022-12-15T16:33:10.996Z,44.90
2022-12-15T16:39:33.733Z,35.20
2022-12-15T16:42:56.765Z,35.22
2022-12-15T16:45:42.103Z,37.10
2022-12-15T16:48:52.607Z,35.00
2022-12-15T16:51:52.289Z,34.83
2022-12-15T16:54:28.351Z,40.08
2022-12-15T16:56:56.867Z,36.05
2022-12-15T16:59:35.312Z,33.10
2022-12-15T17:02:20.254Z,33.70
2022-12-15T17:04:47.153Z,30.35
2022-12-15T17:07:19.703Z,34.22
2022-12-15T17:09:48.425Z,33.85
2022-12-15T17:12:17.978Z,38.75
2022-12-15T17:14:54.072Z,34.47
2022-12-15T17:17:21.246Z,36.72
2022-12-15T17:20:27.261Z,35.60
2022-12-15T17:22:39.054Z,32.30
2022-12-15T17:25:09.037Z,37.42
2022-12-15T17:27:36.707Z,35.38
2022-12-15T17:30:22.430Z,34.45
2022-12-15T17:32:50.162Z,34.33
2022-12-15T17:35:25.105Z,32.17
2022-12-15T17:37:51.771Z,33.83
2022-12-15T17:40:23.879Z,76.55
2022-12-15T17:42:54.520Z,62.92
2022-12-15T17:45:24.048Z,51.42
2022-12-15T17:47:52.173Z,44.90
2022-12-15T17:50:19.379Z,40.58
2022-12-15T17:52:48.462Z,45.90
2022-12-15T17:55:25.099Z,39.03
2022-12-15T17:57:55.807Z,43.25
2022-12-15T18:00:31.395Z,39.83
2022-12-15T18:03:00.310Z,40.78
2022-12-15T18:05:29.609Z,42.55
2022-12-15T18:07:59.583Z,35.83
2022-12-15T18:10:29.416Z,35.55
2022-12-15T18:12:56.614Z,37.00
2022-12-15T18:15:29.701Z,39.05
2022-12-15T18:17:57.451Z,42.30
2022-12-15T18:20:25.054Z,36.40
2022-12-15T18:22:52.561Z,41.33
2022-12-15T18:25:20.938Z,39.72
2022-12-15T18:27:48.013Z,40.17
2022-12-15T18:30:18.098Z,43.28
2022-12-15T18:32:46.808Z,39.00
2022-12-15T18:35:15.715Z,40.80
2022-12-15T18:37:42.527Z,48.95
2022-12-15T18:40:17.528Z,45.05
2022-12-15T18:42:46.153Z,90.38
2022-12-15T18:45:20.793Z,42.33
2022-12-15T18:47:49.851Z,48.85
2022-12-15T18:50:22.584Z,37.60
2022-12-15T18:52:59.294Z,39.13
2022-12-15T18:55:30.456Z,39.03
2022-12-15T18:57:58.794Z,41.65
2022-12-15T19:00:27.895Z,39.65
2022-12-15T19:02:57.606Z,39.75
2022-12-15T19:05:29.949Z,45.05
2022-12-15T19:08:13.182Z,36.00
2022-12-15T19:10:51.270Z,41.28
2022-12-15T19:13:21.045Z,39.78
2022-12-15T19:15:47.682Z,41.95
2022-12-15T19:18:38.297Z,39.25
2022-12-15T19:21:41.172Z,39.33
2022-12-15T19:24:11.986Z,38.03
2022-12-15T19:26:40.395Z,38.67
2022-12-15T19:29:17.193Z,38.80
2022-12-15T19:31:44.900Z,41.95
2022-12-15T19:34:11.769Z,41.05
2022-12-15T19:36:38.483Z,44.85
2022-12-15T19:39:07.092Z,38.17
2022-12-15T19:41:38.150Z,42.10
2022-12-15T19:44:14.589Z,46.67
2022-12-15T19:46:44.693Z,44.90
2022-12-15T19:49:11.467Z,42.33
2022-12-15T19:51:39.074Z,44.35
2022-12-15T19:54:06.147Z,49.65
2022-12-15T19:56:32.883Z,91.65
2022-12-15T19:58:59.716Z,57.50
2022-12-15T20:01:26.568Z,43.85
2022-12-15T20:03:53.391Z,47.55
2022-12-15T20:06:24.608Z,49.88
2022-12-15T20:08:54.811Z,44.85
2022-12-15T20:11:27.646Z,47.58
2022-12-15T20:13:54.604Z,38.45
2022-12-15T20:16:22.380Z,40.63
2022-12-15T20:18:54.844Z,49.67
2022-12-15T20:21:24.103Z,42.10
2022-12-15T20:23:57.559Z,43.58
2022-12-15T20:26:25.177Z,40.90
2022-12-15T20:28:53.074Z,42.20
2022-12-15T20:31:22.494Z,37.97
2022-12-15T20:33:49.576Z,39.53
2022-12-15T20:36:19.566Z,39.72
2022-12-15T20:38:47.035Z,46.20
2022-12-15T20:41:25.377Z,40.55
2022-12-15T20:43:54.629Z,40.42
2022-12-15T20:46:27.609Z,37.85
2022-12-15T20:48:55.441Z,36.33
2022-12-15T20:51:28.801Z,39.50
2022-12-15T20:53:58.279Z,40.95
2022-12-15T20:56:25.681Z,43.85
2022-12-15T20:58:54.278Z,47.10
2022-12-15T21:01:24.139Z,41.22
2022-12-15T21:03:53.741Z,47.40
2022-12-15T21:06:20.898Z,56.45
2022-12-15T21:08:47.585Z,45.75
2022-12-15T21:11:26.844Z,42.25
2022-12-15T21:13:56.389Z,36.45
2022-12-15T21:16:28.200Z,43.17
2022-12-15T21:19:19.296Z,39.85
2022-12-15T21:21:48.851Z,45.28
2022-12-15T21:24:22.987Z,44.25
2022-12-15T21:26:50.197Z,40.15
2022-12-15T21:29:20.257Z,48.50
2022-12-15T21:31:47.393Z,44.75
2022-12-15T21:34:14.311Z,36.20
2022-12-15T21:36:43.498Z,37.63
2022-12-15T21:39:18.651Z,38.17
2022-12-15T21:41:45.411Z,38.85
2022-12-15T21:44:15.633Z,42.30
2022-12-15T21:46:42.585Z,39.53
2022-12-15T21:49:18.465Z,42.90
2022-12-15T21:51:52.422Z,40.17
2022-12-15T21:54:30.378Z,38.55
2022-12-15T21:56:58.596Z,44.67
2022-12-15T21:59:27.847Z,40.10
2022-12-15T22:01:56.025Z,38.33
2022-12-15T22:04:30.408Z,41.75
2022-12-15T22:06:57.291Z,40.22
2022-12-15T22:09:24.069Z,42.17
2022-12-15T22:11:56.243Z,40.78
2022-12-15T22:14:32.394Z,42.78
2022-12-15T22:17:01.032Z,42.55
2022-12-15T22:19:28.259Z,44.28
2022-12-15T22:21:55.271Z,48.40
2022-12-15T22:24:22.024Z,42.17
2022-12-15T22:26:48.977Z,42.67
2022-12-15T22:29:21.197Z,41.45
2022-12-15T22:31:50.146Z,43.17
2022-12-15T22:34:22.052Z,38.95
2022-12-15T22:36:50.031Z,40.90
2022-12-15T22:39:18.771Z,43.70
2022-12-15T22:41:50.851Z,41.65
2022-12-15T22:44:32.144Z,42.83
2022-12-15T22:47:01.353Z,43.55
2022-12-15T22:49:35.523Z,46.83
2022-12-15T22:52:02.426Z,39.50
2022-12-15T22:54:32.051Z,38.05
2022-12-15T22:57:05.350Z,43.97
2022-12-15T22:59:42.407Z,36.72
2022-12-15T23:02:09.843Z,43.65
2022-12-15T23:04:36.686Z,41.35
2022-12-15T23:07:07.411Z,43.83
2022-12-15T23:09:34.101Z,45.97
2022-12-15T23:12:00.789Z,46.00
2022-12-15T23:14:46.050Z,50.60
2022-12-15T23:17:13.466Z,41.30
2022-12-15T23:19:46.810Z,47.00
2022-12-15T23:22:14.349Z,46.22
2022-12-15T23:24:41.151Z,40.97
2022-12-15T23:27:12.332Z,43.28
2022-12-15T23:29:39.309Z,50.30
2022-12-15T23:32:06.055Z,45.85
2022-12-15T23:34:34.726Z,43.92
2022-12-15T23:37:03.416Z,41.08
2022-12-15T23:39:30.089Z,41.40
2022-12-15T23:41:56.700Z,40.03
2022-12-15T23:44:23.335Z,39.25
2022-12-15T23:46:50.066Z,42.03
2022-12-15T23:49:17.164Z,41.47
2022-12-15T23:51:43.814Z,37.58
2022-12-15T23:54:10.501Z,39.88
2022-12-15T23:56:39.465Z,40.30
2022-12-15T23:59:06.397Z,39.40
